createdAt,value
2023-01-30T00:04:02.900Z,100429.42
2023-01-30T00:09:11.523Z,100419.34
2023-01-30T00:14:17.170Z,100428.42
2023-01-30T00:19:22.571Z,100405.01
2023-01-30T00:24:28.148Z,100392.63
2023-01-30T00:29:33.699Z,100357.78
2023-01-30T00:34:39.988Z,100332.36
2023-01-30T00:39:46.067Z,100279.02
2023-01-30T00:45:09.450Z,100243.45
2023-01-30T00:50:14.908Z,100242.49
2023-01-30T00:55:21.532Z,100260.98
2023-01-30T01:00:27.156Z,100245.38
2023-01-30T01:05:32.834Z,100192.03
2023-01-30T01:10:38.657Z,100189.61
2023-01-30T01:15:44.063Z,100196.91
2023-01-30T01:20:50.155Z,100164.86
2023-01-30T01:25:55.631Z,100147.63
2023-01-30T01:31:01.090Z,100144.59
2023-01-30T01:36:09.081Z,100121.56
2023-01-30T01:41:16.534Z,100115.29
2023-01-30T01:46:27.513Z,100108.28
2023-01-30T01:51:42.010Z,100104.78
2023-01-30T01:56:50.060Z,100124.94
2023-01-30T02:01:58.906Z,100101.87
2023-01-30T02:07:04.488Z,100094.81
2023-01-30T02:12:10.982Z,100079.37
2023-01-30T02:17:16.422Z,100045.20
2023-01-30T02:22:53.481Z,100045.55
2023-01-30T02:28:10.996Z,100031.94
2023-01-30T02:33:25.109Z,100020.91
2023-01-30T02:38:44.306Z,99990.02
2023-01-30T02:44:14.581Z,100001.97
2023-01-30T02:49:29.107Z,99981.75
2023-01-30T02:54:34.735Z,99999.73
2023-01-30T02:59:43.734Z,99970.92
2023-01-30T03:05:02.648Z,99934.80
2023-01-30T03:10:27.707Z,99950.53
2023-01-30T03:15:43.333Z,99955.94
2023-01-30T03:20:49.156Z,99938.52
2023-01-30T03:25:54.682Z,99929.34
2023-01-30T03:31:01.191Z,99938.31
2023-01-30T03:36:07.752Z,99917.92
2023-01-30T03:41:13.530Z,99912.70
2023-01-30T03:46:19.114Z,99913.22
2023-01-30T03:51:25.112Z,99898.45
2023-01-30T03:56:31.808Z,99899.06
2023-01-30T04:01:37.684Z,99883.67
2023-01-30T04:06:43.611Z,99864.13
2023-01-30T04:11:49.513Z,99855.00
2023-01-30T04:16:55.268Z,99825.87
2023-01-30T04:22:05.192Z,99818.80
2023-01-30T04:27:11.123Z,99805.38
2023-01-30T04:32:18.304Z,99782.95
2023-01-30T04:37:24.194Z,99778.06
2023-01-30T04:42:29.652Z,99762.61
2023-01-30T04:48:05.091Z,99755.48
2023-01-30T04:53:11.584Z,99748.34
2023-01-30T04:58:20.397Z,99746.62
2023-01-30T05:03:26.140Z,99707.79
2023-01-30T05:08:31.505Z,99711.84
2023-01-30T05:13:36.894Z,99705.08
2023-01-30T05:18:43.190Z,99700.81
2023-01-30T05:23:49.020Z,99690.45
2023-01-30T05:28:58.820Z,99679.63
2023-01-30T05:34:04.410Z,99641.27
2023-01-30T05:39:09.845Z,99665.30
2023-01-30T05:44:15.244Z,99670.21
2023-01-30T05:49:20.806Z,99663.08
2023-01-30T05:54:26.843Z,99670.41
2023-01-30T05:59:32.347Z,99660.50
2023-01-30T06:04:37.739Z,99642.94
2023-01-30T06:09:43.114Z,99636.33
2023-01-30T06:14:48.491Z,99635.80
2023-01-30T06:19:54.008Z,99643.52
2023-01-30T06:24:59.454Z,99634.97
2023-01-30T06:30:05.609Z,99643.29
2023-01-30T06:35:11.667Z,99622.20
2023-01-30T06:40:18.265Z,99634.50
2023-01-30T06:45:23.829Z,99632.25
2023-01-30T06:50:31.082Z,99624.86
2023-01-30T06:55:37.280Z,99623.30
2023-01-30T07:00:43.840Z,99615.59
2023-01-30T07:05:49.525Z,99622.45
2023-01-30T07:10:55.349Z,99620.52
2023-01-30T07:16:00.866Z,99629.49
2023-01-30T07:21:06.691Z,99629.67
2023-01-30T07:26:12.187Z,99632.78
2023-01-30T07:31:17.763Z,99632.41
2023-01-30T07:36:23.704Z,99643.55
2023-01-30T07:41:29.599Z,99640.77
2023-01-30T07:46:37.553Z,99655.32
2023-01-30T07:51:43.152Z,99663.74
2023-01-30T07:56:48.526Z,99648.84
2023-01-30T08:01:54.117Z,99654.67
2023-01-30T08:06:59.579Z,99654.52
2023-01-30T08:12:05.404Z,99658.00
2023-01-30T08:17:10.814Z,99658.00
2023-01-30T08:22:16.616Z,99648.41
2023-01-30T08:27:22.090Z,99648.41
2023-01-30T08:32:27.469Z,99646.66
2023-01-30T08:37:33.047Z,99647.97
2023-01-30T08:42:38.778Z,99659.73
2023-01-30T08:47:44.302Z,99642.58
2023-01-30T08:52:49.834Z,99638.19
2023-01-30T08:57:58.337Z,99618.77
2023-01-30T09:03:04.035Z,99621.77
2023-01-30T09:08:09.638Z,99634.43
2023-01-30T09:13:15.074Z,99625.78
2023-01-30T09:18:20.882Z,99617.48
2023-01-30T09:23:26.439Z,99608.69
2023-01-30T09:28:32.028Z,99608.34
2023-01-30T09:33:37.552Z,99598.55
2023-01-30T09:38:42.936Z,99597.48
2023-01-30T09:44:05.196Z,99580.23
2023-01-30T09:49:19.221Z,99594.95
2023-01-30T09:54:28.682Z,99596.41
2023-01-30T09:59:40.005Z,99594.55
2023-01-30T10:05:00.935Z,99602.34
2023-01-30T10:10:15.250Z,99604.61
2023-01-30T10:15:35.597Z,99677.25
2023-01-30T10:20:58.648Z,99588.83
2023-01-30T10:26:16.457Z,99602.05
2023-01-30T10:31:26.426Z,99611.66
2023-01-30T10:36:46.757Z,99604.05
2023-01-30T10:41:55.229Z,99607.31
2023-01-30T10:47:23.031Z,99594.42
2023-01-30T10:52:43.903Z,99600.64
2023-01-30T10:57:55.511Z,99591.81
2023-01-30T11:03:20.299Z,99594.56
2023-01-30T11:08:28.780Z,99586.65
2023-01-30T11:13:35.359Z,99572.82
2023-01-30T11:24:02.514Z,99556.73
2023-01-30T11:29:28.940Z,99557.92
2023-01-30T11:34:34.479Z,99544.19
2023-01-30T11:39:41.438Z,99568.45
2023-01-30T11:44:47.099Z,99549.89
2023-01-30T11:50:01.754Z,99559.41
2023-01-30T11:55:08.866Z,99591.42
2023-01-30T12:00:18.550Z,99569.94
2023-01-30T12:05:28.421Z,99532.81
2023-01-30T12:10:34.031Z,99498.75
2023-01-30T12:15:41.066Z,99498.75
2023-01-30T12:21:08.038Z,99494.94
2023-01-30T12:26:31.839Z,99486.06
2023-01-30T12:31:40.728Z,99480.09
2023-01-30T12:36:51.677Z,99476.05
2023-01-30T12:42:15.450Z,99465.69
2023-01-30T12:47:49.338Z,99460.11
2023-01-30T12:53:06.430Z,99433.84
2023-01-30T12:58:30.057Z,99433.84
2023-01-30T13:03:53.850Z,99438.19
2023-01-30T13:09:17.623Z,99446.92
2023-01-30T13:14:31.936Z,99449.26
2023-01-30T13:19:46.581Z,99455.45
2023-01-30T13:25:20.839Z,99465.70
2023-01-30T13:30:28.530Z,99469.01
2023-01-30T13:35:39.775Z,99466.09
2023-01-30T13:40:48.001Z,99475.55
2023-01-30T13:45:56.123Z,99464.00
2023-01-30T13:51:24.264Z,99481.33
2023-01-30T13:56:41.940Z,99473.55
2023-01-30T14:02:09.458Z,99485.14
2023-01-30T14:07:21.859Z,99476.97
2023-01-30T14:12:30.376Z,99470.95
2023-01-30T14:17:35.908Z,99450.76
2023-01-30T14:22:59.079Z,99468.68
2023-01-30T14:28:10.322Z,99482.80
2023-01-30T14:33:29.424Z,99481.47
2023-01-30T14:38:39.547Z,99460.94
2023-01-30T14:43:50.231Z,99479.58
2023-01-30T14:49:00.142Z,99474.03
2023-01-30T14:54:17.699Z,99489.97
2023-01-30T14:59:26.210Z,99480.31
2023-01-30T15:04:54.312Z,99481.38
2023-01-30T15:10:19.700Z,99498.81
2023-01-30T15:15:37.022Z,99508.30
2023-01-30T15:20:48.245Z,99514.44
2023-01-30T15:26:11.613Z,99515.77
2023-01-30T15:31:20.678Z,99496.84
2023-01-30T15:36:32.123Z,99498.80
2023-01-30T15:41:43.116Z,99527.39
2023-01-30T15:47:02.233Z,99540.94
2023-01-30T15:52:12.006Z,99558.40
2023-01-30T15:57:20.420Z,99558.40
2023-01-30T16:02:29.193Z,99566.37
2023-01-30T16:07:35.075Z,99586.17
2023-01-30T16:12:41.224Z,99593.88
2023-01-30T16:17:49.971Z,99597.33
2023-01-30T16:22:56.045Z,99610.70
2023-01-30T16:28:01.889Z,99624.45
2023-01-30T16:33:10.165Z,99624.30
2023-01-30T16:38:36.455Z,99638.53
2023-01-30T16:43:43.637Z,99633.16
2023-01-30T16:48:50.353Z,99651.94
2023-01-30T16:53:58.777Z,99666.83
2023-01-30T16:59:05.010Z,99683.20
2023-01-30T17:04:22.663Z,99683.83
2023-01-30T17:09:41.751Z,99706.88
2023-01-30T17:14:47.415Z,99729.32
2023-01-30T17:19:52.887Z,99729.88
2023-01-30T17:25:01.369Z,99752.74
2023-01-30T17:30:18.965Z,99751.27
2023-01-30T17:35:24.796Z,99769.43
2023-01-30T17:40:36.067Z,99779.64
2023-01-30T17:45:43.320Z,99776.60
2023-01-30T17:50:48.951Z,99780.66
2023-01-30T17:55:54.520Z,99781.36
2023-01-30T18:00:59.989Z,99778.39
2023-01-30T18:06:05.521Z,99808.31
2023-01-30T18:11:12.132Z,99808.31
2023-01-30T18:16:20.775Z,99830.69
2023-01-30T18:21:26.377Z,99865.80
2023-01-30T18:26:32.462Z,99865.80
2023-01-30T18:31:39.115Z,99864.27
2023-01-30T18:36:44.696Z,99873.14
2023-01-30T18:41:50.213Z,99870.64
2023-01-30T18:46:55.804Z,99878.19
2023-01-30T18:52:01.186Z,99889.73
2023-01-30T18:57:07.699Z,99892.96
2023-01-30T19:02:13.944Z,99899.98
2023-01-30T19:07:19.602Z,99917.36
2023-01-30T19:12:43.132Z,99919.55
2023-01-30T19:17:48.683Z,99923.06
2023-01-30T19:22:55.167Z,99956.28
2023-01-30T19:28:00.582Z,99969.25
2023-01-30T19:33:06.063Z,99970.26
2023-01-30T19:38:12.293Z,99990.70
2023-01-30T19:43:17.781Z,99980.41
2023-01-30T19:48:23.234Z,100040.28
2023-01-30T19:53:29.190Z,100029.35
2023-01-30T19:58:36.638Z,100027.33
2023-01-30T20:03:43.149Z,100053.55
2023-01-30T20:08:50.880Z,100043.72
2023-01-30T20:13:56.625Z,100060.11
2023-01-30T20:19:09.968Z,100068.20
2023-01-30T20:24:16.968Z,100071.89
2023-01-30T20:29:22.348Z,100080.14
2023-01-30T20:34:27.978Z,100109.19
2023-01-30T20:39:33.501Z,100135.66
2023-01-30T20:44:39.804Z,100122.77
2023-01-30T20:49:45.516Z,100138.98
2023-01-30T20:54:51.311Z,100135.00
2023-01-30T20:59:57.118Z,100149.69
2023-01-30T21:05:02.789Z,100173.27
2023-01-30T21:10:10.474Z,100187.40
2023-01-30T21:15:16.139Z,100189.61
2023-01-30T21:20:22.044Z,100189.20
2023-01-30T21:25:27.534Z,100210.56
2023-01-30T21:30:33.331Z,100208.23
2023-01-30T21:35:40.267Z,100240.91
2023-01-30T21:40:52.153Z,100245.50
2023-01-30T21:46:00.706Z,100257.10
2023-01-30T21:51:11.427Z,100280.91
2023-01-30T21:56:17.140Z,100268.17
2023-01-30T22:01:23.208Z,100271.31
2023-01-30T22:06:29.607Z,100287.22
2023-01-30T22:11:37.770Z,100283.97
2023-01-30T22:16:43.406Z,100295.51
2023-01-30T22:21:48.860Z,100314.03
2023-01-30T22:26:54.608Z,100314.03
2023-01-30T22:32:00.427Z,100317.48
2023-01-30T22:37:05.960Z,100325.84
2023-01-30T22:42:11.588Z,100325.84
2023-01-30T22:47:17.221Z,100341.98
2023-01-30T22:52:22.858Z,100341.98
2023-01-30T22:57:28.309Z,100343.52
2023-01-30T23:02:33.775Z,100346.58
2023-01-30T23:07:39.349Z,100344.05
2023-01-30T23:13:02.971Z,100349.64
2023-01-30T23:18:27.887Z,100358.31
2023-01-30T23:23:33.367Z,100354.74
2023-01-30T23:28:39.412Z,100367.17
2023-01-30T23:33:45.209Z,100374.22
2023-01-30T23:38:52.679Z,100378.80
2023-01-30T23:43:59.059Z,100383.48
2023-01-30T23:49:07.422Z,100391.59
2023-01-30T23:54:14.376Z,100399.97
2023-01-30T23:59:19.806Z,100381.94
